createdAt,value
2019-06-07T00:00:47.599Z,15.03
2019-06-07T00:03:26.528Z,12.85
2019-06-07T00:05:44.620Z,14.63
2019-06-07T00:08:21.764Z,12.60
2019-06-07T00:10:41.476Z,12.35
2019-06-07T00:13:09.699Z,12.88
2019-06-07T00:15:37.327Z,13.58
2019-06-07T00:18:04.920Z,12.58
2019-06-07T00:20:33.458Z,15.58
2019-06-07T00:23:01.015Z,16.02
2019-06-07T00:25:28.517Z,16.57
2019-06-07T00:27:56.108Z,17.00
2019-06-07T00:30:43.724Z,17.77
2019-06-07T00:32:53.453Z,18.98
2019-06-07T00:35:22.454Z,20.32
2019-06-07T00:37:50.090Z,20.55
2019-06-07T00:40:24.979Z,20.20
2019-06-07T00:42:46.925Z,17.77
2019-06-07T00:45:18.350Z,22.32
2019-06-07T00:47:43.909Z,20.82
2019-06-07T00:50:11.580Z,22.27
2019-06-07T00:55:09.093Z,18.05
2019-06-07T00:57:36.685Z,17.25
2019-06-07T01:00:05.110Z,20.77
2019-06-07T01:02:34.412Z,20.82
2019-06-07T01:05:02.307Z,22.58
2019-06-07T01:07:29.974Z,23.73
2019-06-07T01:09:57.481Z,20.37
2019-06-07T01:12:27.081Z,18.10
2019-06-07T01:14:54.429Z,20.90
2019-06-07T01:17:39.912Z,22.32
2019-06-07T01:19:55.717Z,22.27
2019-06-07T01:22:27.503Z,22.73
2019-06-07T01:24:52.709Z,23.62
2019-06-07T01:27:22.546Z,20.08
2019-06-07T01:29:49.335Z,20.68
2019-06-07T01:32:17.474Z,22.37
2019-06-07T01:34:46.209Z,20.02
2019-06-07T01:37:13.647Z,19.60
2019-06-07T01:39:41.160Z,23.52
2019-06-07T01:42:08.604Z,24.85
2019-06-07T01:44:36.059Z,24.82
2019-06-07T01:47:03.970Z,27.15
2019-06-07T01:49:31.429Z,24.85
2019-06-07T01:51:58.837Z,32.05
2019-06-07T01:54:52.171Z,31.42
2019-06-07T01:56:55.953Z,34.03
2019-06-07T01:59:25.094Z,32.13
2019-06-07T02:01:53.755Z,24.70
2019-06-07T02:04:23.330Z,23.05
2019-06-07T02:06:51.601Z,30.20
2019-06-07T02:09:20.842Z,27.80
2019-06-07T02:11:48.403Z,39.58
2019-06-07T02:14:16.054Z,40.63
2019-06-07T02:16:43.554Z,32.65
2019-06-07T02:19:10.920Z,36.77
2019-06-07T02:21:38.414Z,29.77
2019-06-07T02:24:05.890Z,42.53
2019-06-07T02:26:33.394Z,29.57
2019-06-07T02:29:01.002Z,37.98
2019-06-07T02:31:36.296Z,45.23
2019-06-07T02:33:57.734Z,49.25
2019-06-07T02:36:29.714Z,37.65
2019-06-07T02:38:54.461Z,36.70
2019-06-07T02:41:25.783Z,42.35
2019-06-07T02:43:51.370Z,50.17
2019-06-07T02:46:30.391Z,41.45
2019-06-07T02:48:54.867Z,50.60
2019-06-07T02:51:24.458Z,53.02
2019-06-07T02:53:51.943Z,55.52
2019-06-07T02:56:48.556Z,43.28
2019-06-07T02:58:48.763Z,49.05
2019-06-07T03:01:16.635Z,41.75
2019-06-07T03:03:44.399Z,43.42
2019-06-07T03:06:15.180Z,47.08
2019-06-07T03:08:44.617Z,45.75
2019-06-07T03:11:14.105Z,32.38
2019-06-07T03:13:44.424Z,51.63
2019-06-07T03:16:13.690Z,42.98
2019-06-07T03:19:07.767Z,49.98
2019-06-07T03:21:36.633Z,49.38
2019-06-07T03:24:04.695Z,46.80
2019-06-07T03:26:42.456Z,45.67
2019-06-07T03:29:01.670Z,36.90
2019-06-07T03:31:35.506Z,44.58
2019-06-07T03:33:58.676Z,40.05
2019-06-07T03:36:27.569Z,27.13
2019-06-07T03:38:56.519Z,22.98
2019-06-07T03:41:23.981Z,21.40
2019-06-07T03:43:51.468Z,23.22
2019-06-07T03:46:18.901Z,26.77
2019-06-07T03:48:46.401Z,27.22
2019-06-07T03:51:24.764Z,23.12
2019-06-07T03:53:43.444Z,21.07
2019-06-07T03:56:11.812Z,27.62
2019-06-07T03:58:49.212Z,20.65
2019-06-07T04:01:09.433Z,24.85
2019-06-07T04:03:46.486Z,18.00
2019-06-07T04:06:06.745Z,17.07
2019-06-07T04:08:38.296Z,20.72
2019-06-07T04:11:03.595Z,23.10
2019-06-07T04:13:36.768Z,22.30
2019-06-07T04:16:01.327Z,22.80
2019-06-07T04:18:28.741Z,16.67
2019-06-07T04:20:56.222Z,19.98
2019-06-07T04:23:28.300Z,14.00
2019-06-07T04:25:54.073Z,22.05
2019-06-07T04:32:16.695Z,22.95
2019-06-07T04:35:31.433Z,20.95
2019-06-07T04:44:58.665Z,17.07
2019-06-07T04:48:05.281Z,16.25
2019-06-07T04:55:06.476Z,17.32
2019-06-07T04:58:52.182Z,15.70
2019-06-07T05:01:27.389Z,14.75
2019-06-07T05:03:49.013Z,16.25
2019-06-07T05:06:16.548Z,14.87
2019-06-07T05:08:44.433Z,16.67
2019-06-07T05:11:11.998Z,15.58
2019-06-07T05:13:43.499Z,15.18
2019-06-07T05:16:10.215Z,15.50
2019-06-07T05:18:40.179Z,15.23
2019-06-07T05:21:06.988Z,14.05
2019-06-07T05:26:04.038Z,13.48
2019-06-07T05:28:32.571Z,14.28
2019-06-07T05:31:05.364Z,14.25
2019-06-07T05:33:31.140Z,14.67
2019-06-07T05:35:58.878Z,11.88
2019-06-07T05:38:26.528Z,11.35
2019-06-07T05:40:53.998Z,10.00
2019-06-07T05:43:23.702Z,8.70
2019-06-07T05:45:51.275Z,5.10
2019-06-07T05:48:18.866Z,5.97
2019-06-07T05:50:56.104Z,5.55
2019-06-07T05:53:15.524Z,4.87
2019-06-07T05:55:47.121Z,3.67
2019-06-07T05:58:12.278Z,3.87
2019-06-07T06:00:41.580Z,3.87
2019-06-07T06:03:08.999Z,3.55
2019-06-07T06:05:41.734Z,3.15
2019-06-07T06:08:05.881Z,3.63
2019-06-07T06:10:33.958Z,3.12
2019-06-07T06:13:01.597Z,2.72
2019-06-07T06:15:42.205Z,3.33
2019-06-07T06:17:59.626Z,2.70
2019-06-07T06:20:32.791Z,2.40
2019-06-07T06:22:56.383Z,2.90
2019-06-07T06:25:33.657Z,2.92
2019-06-07T06:28:10.595Z,3.47
2019-06-07T06:30:23.079Z,2.70
2019-06-07T06:32:57.518Z,3.17
2019-06-07T06:35:20.090Z,3.40
2019-06-07T06:37:52.991Z,3.47
2019-06-07T06:40:17.317Z,3.40
2019-06-07T06:42:48.577Z,3.33
2019-06-07T06:45:14.993Z,2.83
2019-06-07T06:47:43.325Z,2.87
2019-06-07T06:50:11.827Z,2.77
2019-06-07T06:52:42.206Z,2.42
2019-06-07T06:55:09.265Z,2.33
2019-06-07T06:57:36.684Z,2.52
2019-06-07T07:00:06.366Z,2.95
2019-06-07T07:02:34.069Z,2.50
2019-06-07T07:05:01.694Z,1.98
2019-06-07T07:07:30.234Z,2.10
2019-06-07T07:09:59.922Z,2.15
2019-06-07T07:12:27.787Z,2.58
2019-06-07T07:14:56.270Z,2.50
2019-06-07T07:17:46.799Z,2.42
2019-06-07T07:19:55.528Z,2.58
2019-06-07T07:22:22.650Z,2.80
2019-06-07T07:24:53.387Z,2.33
2019-06-07T07:27:19.517Z,2.17
2019-06-07T07:29:49.635Z,2.60
2019-06-07T07:32:16.594Z,2.52
2019-06-07T07:34:46.242Z,3.20
2019-06-07T07:37:13.422Z,2.37
2019-06-07T07:39:41.046Z,2.50
2019-06-07T07:42:20.917Z,2.65
2019-06-07T07:44:37.827Z,2.90
2019-06-07T07:47:05.299Z,2.50
2019-06-07T07:49:33.906Z,2.87
2019-06-07T07:52:01.457Z,2.55
2019-06-07T07:54:29.022Z,3.10
2019-06-07T07:56:57.358Z,2.70
2019-06-07T07:59:41.371Z,2.42
2019-06-07T08:01:56.137Z,2.60
2019-06-07T08:04:39.520Z,2.42
2019-06-07T08:06:54.743Z,2.80
2019-06-07T08:09:22.643Z,2.15
2019-06-07T08:11:52.933Z,2.42
2019-06-07T08:14:19.810Z,2.80
2019-06-07T08:16:47.314Z,3.50
2019-06-07T08:19:15.046Z,2.50
2019-06-07T08:21:42.604Z,2.37
2019-06-07T08:24:10.170Z,2.65
2019-06-07T08:26:38.804Z,2.50
2019-06-07T08:29:06.420Z,2.55
2019-06-07T08:31:36.459Z,2.20
2019-06-07T08:34:04.408Z,2.37
2019-06-07T08:36:41.909Z,3.87
2019-06-07T08:39:07.299Z,2.60
2019-06-07T08:41:32.350Z,2.55
2019-06-07T08:44:04.287Z,2.33
2019-06-07T08:46:29.372Z,2.30
2019-06-07T08:49:02.210Z,2.65
2019-06-07T08:51:26.460Z,3.43
2019-06-07T08:54:15.881Z,4.53
2019-06-07T08:56:25.371Z,3.00
2019-06-07T08:58:55.021Z,3.10
2019-06-07T09:01:22.374Z,3.23
2019-06-07T09:03:50.050Z,2.87
2019-06-07T09:07:01.001Z,2.80
2019-06-07T09:11:14.827Z,3.17
2019-06-07T09:13:42.238Z,3.30
2019-06-07T09:16:09.722Z,3.20
2019-06-07T09:18:43.537Z,3.33
2019-06-07T09:21:09.840Z,4.40
2019-06-07T09:23:37.516Z,4.30
2019-06-07T09:26:15.574Z,3.98
2019-06-07T09:28:34.601Z,3.77
2019-06-07T09:31:06.884Z,3.45
2019-06-07T09:33:33.702Z,3.50
2019-06-07T09:36:07.081Z,3.47
2019-06-07T09:38:30.607Z,3.85
2019-06-07T09:40:59.885Z,3.90
2019-06-07T09:45:58.190Z,3.50
2019-06-07T09:49:09.181Z,4.05
2019-06-07T09:51:01.960Z,3.52
2019-06-07T09:53:24.748Z,3.20
2019-06-07T09:55:52.239Z,3.80
2019-06-07T10:00:52.227Z,3.05
2019-06-07T10:03:22.267Z,3.52
2019-06-07T10:05:49.279Z,3.43
2019-06-07T10:09:26.285Z,3.25
2019-06-07T10:10:46.019Z,3.80
2019-06-07T10:13:13.582Z,3.75
2019-06-07T10:15:41.502Z,3.60
2019-06-07T10:18:09.299Z,4.15
2019-06-07T10:20:37.430Z,3.67
2019-06-07T10:23:05.749Z,3.42
2019-06-07T10:25:33.409Z,3.77
2019-06-07T10:28:01.821Z,3.83
2019-06-07T10:30:33.234Z,3.62
2019-06-07T10:33:02.100Z,3.20
2019-06-07T10:35:29.839Z,3.42
2019-06-07T10:37:58.244Z,3.65
2019-06-07T10:40:25.920Z,2.98
2019-06-07T10:42:53.464Z,4.15
2019-06-07T10:45:21.040Z,3.30
2019-06-07T10:47:48.571Z,3.08
2019-06-07T10:50:17.212Z,3.25
2019-06-07T10:52:44.727Z,3.40
2019-06-07T10:55:12.733Z,3.30
2019-06-07T10:57:40.232Z,2.77
2019-06-07T11:00:09.515Z,3.05
2019-06-07T11:02:37.295Z,3.30
2019-06-07T11:05:07.522Z,3.10
2019-06-07T11:07:37.231Z,2.87
2019-06-07T11:10:09.388Z,2.77
2019-06-07T11:12:34.275Z,2.50
2019-06-07T11:15:04.726Z,2.27
2019-06-07T11:17:32.401Z,2.60
2019-06-07T11:19:59.849Z,2.37
2019-06-07T11:22:27.438Z,2.50
2019-06-07T11:24:54.881Z,3.15
2019-06-07T11:27:22.510Z,2.98
2019-06-07T11:29:50.274Z,2.67
2019-06-07T11:32:18.844Z,3.47
2019-06-07T11:34:49.253Z,3.08
2019-06-07T11:39:43.989Z,3.45
2019-06-07T11:42:12.085Z,3.27
2019-06-07T11:44:55.772Z,3.15
2019-06-07T11:47:10.451Z,3.70
2019-06-07T11:49:38.177Z,3.47
2019-06-07T11:52:05.663Z,2.87
2019-06-07T11:54:33.555Z,3.15
2019-06-07T11:57:01.412Z,3.47
2019-06-07T11:59:28.918Z,3.17
2019-06-07T12:01:57.159Z,3.60
2019-06-07T12:04:34.520Z,3.20
2019-06-07T12:06:54.028Z,3.75
2019-06-07T12:09:21.603Z,3.83
2019-06-07T12:11:49.166Z,4.45
2019-06-07T12:14:16.881Z,3.83
2019-06-07T12:16:44.346Z,4.50
2019-06-07T12:19:12.001Z,4.35
2019-06-07T12:21:40.738Z,4.47
2019-06-07T12:24:08.246Z,5.30
2019-06-07T12:26:35.837Z,4.40
2019-06-07T12:29:03.605Z,4.60
2019-06-07T12:31:31.096Z,4.40
2019-06-07T12:33:58.727Z,4.53
2019-06-07T12:36:26.252Z,4.25
2019-06-07T12:38:53.854Z,4.17
2019-06-07T12:41:22.347Z,3.77
2019-06-07T12:43:49.903Z,5.00
2019-06-07T12:46:23.382Z,4.40
2019-06-07T12:48:47.284Z,4.55
2019-06-07T12:51:15.200Z,4.75
2019-06-07T12:53:42.742Z,4.37
2019-06-07T12:56:10.202Z,4.75
2019-06-07T12:58:39.547Z,4.70
2019-06-07T13:01:06.870Z,5.03
2019-06-07T13:03:35.445Z,6.17
2019-06-07T13:06:02.965Z,5.47
2019-06-07T13:08:30.564Z,4.95
2019-06-07T13:11:14.333Z,4.97
2019-06-07T13:13:28.647Z,4.67
2019-06-07T13:15:56.195Z,5.12
2019-06-07T13:18:25.150Z,5.08
2019-06-07T13:20:55.357Z,5.55
2019-06-07T13:23:22.590Z,5.55
2019-06-07T13:25:50.262Z,5.67
2019-06-07T13:28:20.760Z,4.90
2019-06-07T13:30:48.294Z,5.20
2019-06-07T13:33:16.856Z,6.70
2019-06-07T13:35:45.188Z,6.92
2019-06-07T13:38:24.533Z,6.05
2019-06-07T13:40:52.744Z,6.65
2019-06-07T13:43:21.375Z,6.33
2019-06-07T13:45:49.242Z,6.47
2019-06-07T13:48:17.115Z,6.28
2019-06-07T13:50:44.569Z,6.92
2019-06-07T13:53:12.032Z,7.83
2019-06-07T13:55:39.530Z,7.15
2019-06-07T13:58:07.718Z,7.45
2019-06-07T14:00:35.426Z,6.60
2019-06-07T14:03:03.774Z,6.33
2019-06-07T14:05:31.492Z,6.95
2019-06-07T14:07:58.922Z,8.93
2019-06-07T14:10:27.562Z,8.13
2019-06-07T14:12:56.762Z,9.03
2019-06-07T14:15:24.840Z,8.93
2019-06-07T14:17:52.698Z,9.10
2019-06-07T14:20:25.498Z,10.00
2019-06-07T14:22:54.156Z,9.30
2019-06-07T14:25:20.967Z,10.10
2019-06-07T14:27:48.585Z,9.73
2019-06-07T14:30:16.862Z,9.80
2019-06-07T14:32:44.794Z,9.80
2019-06-07T14:35:12.756Z,9.00
2019-06-07T14:37:40.219Z,10.98
2019-06-07T14:40:08.663Z,9.45
2019-06-07T14:42:36.148Z,9.78
2019-06-07T14:45:06.196Z,11.90
2019-06-07T14:50:03.998Z,11.25
2019-06-07T14:52:33.424Z,12.30
2019-06-07T14:55:01.014Z,11.60
2019-06-07T14:57:29.080Z,11.88
2019-06-07T14:59:56.922Z,10.98
2019-06-07T15:02:24.452Z,11.15
2019-06-07T15:04:52.400Z,10.20
2019-06-07T15:07:22.760Z,10.35
2019-06-07T15:09:50.254Z,10.15
2019-06-07T15:12:25.036Z,11.22
2019-06-07T15:14:47.191Z,10.83
2019-06-07T15:17:14.747Z,9.93
2019-06-07T15:19:42.216Z,9.08
2019-06-07T15:22:09.883Z,9.00
2019-06-07T15:24:39.419Z,8.73
2019-06-07T15:27:06.760Z,10.20
2019-06-07T15:29:34.238Z,12.68
2019-06-07T15:32:01.693Z,12.33
2019-06-07T15:34:30.480Z,12.35
2019-06-07T15:36:58.182Z,11.78
2019-06-07T15:39:25.788Z,12.05
2019-06-07T15:41:53.448Z,12.55
2019-06-07T15:44:20.952Z,11.12
2019-06-07T15:46:48.449Z,12.68
2019-06-07T15:49:15.957Z,12.23
2019-06-07T15:51:43.665Z,11.73
2019-06-07T15:54:12.381Z,13.43
2019-06-07T15:56:41.791Z,11.88
2019-06-07T15:59:09.202Z,12.73
2019-06-07T16:01:37.670Z,12.75
2019-06-07T16:06:34.375Z,13.80
2019-06-07T16:09:02.001Z,12.33
2019-06-07T16:11:32.566Z,12.10
2019-06-07T16:14:00.430Z,11.90
2019-06-07T16:16:28.299Z,12.93
2019-06-07T16:18:55.822Z,13.03
2019-06-07T16:21:23.412Z,12.73
2019-06-07T16:23:50.930Z,13.70
2019-06-07T16:26:18.659Z,12.75
2019-06-07T16:28:46.142Z,12.25
2019-06-07T16:31:13.670Z,12.73
2019-06-07T16:33:45.161Z,11.48
2019-06-07T16:36:13.188Z,12.00
2019-06-07T16:38:40.709Z,12.70
2019-06-07T16:41:08.270Z,11.80
2019-06-07T16:43:36.675Z,13.53
2019-06-07T16:46:05.277Z,12.25
2019-06-07T16:48:32.857Z,13.78
2019-06-07T16:51:00.394Z,13.60
2019-06-07T16:53:27.938Z,13.45
2019-06-07T16:55:55.498Z,12.18
2019-06-07T16:58:25.475Z,13.05
2019-06-07T17:00:53.102Z,12.70
2019-06-07T17:03:22.450Z,11.80
2019-06-07T17:05:50.647Z,11.00
2019-06-07T17:08:18.501Z,10.65
2019-06-07T17:10:48.957Z,11.97
2019-06-07T17:13:30.169Z,11.05
2019-06-07T17:15:46.746Z,12.57
2019-06-07T17:18:14.301Z,13.65
2019-06-07T17:20:42.984Z,12.85
2019-06-07T17:23:10.791Z,13.15
2019-06-07T17:25:39.452Z,12.55
2019-06-07T17:28:07.075Z,12.25
2019-06-07T17:30:34.625Z,11.83
2019-06-07T17:33:04.161Z,12.47
2019-06-07T17:35:31.655Z,12.47
2019-06-07T17:37:59.319Z,11.08
2019-06-07T17:40:28.949Z,10.65
2019-06-07T17:42:58.566Z,11.50
2019-06-07T17:45:26.091Z,10.80
2019-06-07T17:47:53.833Z,10.65
2019-06-07T17:50:21.727Z,11.12
2019-06-07T17:52:50.200Z,11.40
2019-06-07T17:55:17.907Z,11.73
2019-06-07T17:57:46.558Z,11.48
2019-06-07T18:00:28.031Z,11.73
2019-06-07T18:02:44.689Z,12.15
2019-06-07T18:05:14.056Z,10.95
2019-06-07T18:07:45.329Z,10.70
2019-06-07T18:10:17.351Z,10.93
2019-06-07T18:12:45.949Z,10.68
2019-06-07T18:15:15.776Z,9.95
2019-06-07T18:17:44.515Z,10.77
2019-06-07T18:20:13.013Z,10.88
2019-06-07T18:22:41.569Z,10.65
2019-06-07T18:25:10.131Z,10.45
2019-06-07T18:27:39.331Z,10.28
2019-06-07T18:30:11.626Z,9.58
2019-06-07T18:32:37.808Z,9.50
2019-06-07T18:35:06.104Z,9.25
2019-06-07T18:37:33.644Z,9.50
2019-06-07T18:40:01.152Z,10.40
2019-06-07T18:42:28.781Z,9.40
2019-06-07T18:44:57.355Z,11.90
2019-06-07T18:47:24.797Z,10.00
2019-06-07T18:49:54.067Z,9.50
2019-06-07T18:52:29.717Z,9.13
2019-06-07T18:54:57.168Z,9.28
2019-06-07T18:57:24.629Z,10.03
2019-06-07T18:59:52.362Z,8.90
2019-06-07T19:02:20.123Z,10.13
2019-06-07T19:04:47.978Z,9.18
2019-06-07T19:07:15.618Z,9.70
2019-06-07T19:09:43.098Z,9.38
2019-06-07T19:12:10.720Z,9.55
2019-06-07T19:14:38.146Z,9.45
2019-06-07T19:17:05.672Z,10.75
2019-06-07T19:19:33.149Z,9.95
2019-06-07T19:22:00.745Z,10.30
2019-06-07T19:24:28.268Z,10.68
2019-06-07T19:26:56.723Z,11.65
2019-06-07T19:29:24.339Z,10.48
2019-06-07T19:31:52.952Z,9.80
2019-06-07T19:34:21.807Z,8.98
2019-06-07T19:36:49.292Z,10.23
2019-06-07T19:39:18.095Z,9.53
2019-06-07T19:41:45.579Z,9.23
2019-06-07T19:44:13.165Z,9.73
2019-06-07T19:46:40.719Z,8.85
2019-06-07T19:49:08.281Z,8.63
2019-06-07T19:51:35.802Z,9.78
2019-06-07T19:54:03.804Z,9.45
2019-06-07T19:56:31.523Z,8.65
2019-06-07T19:58:59.756Z,9.23
2019-06-07T20:01:27.382Z,9.80
2019-06-07T20:03:56.082Z,9.60
2019-06-07T20:06:23.655Z,9.70
2019-06-07T20:08:51.269Z,10.03
2019-06-07T20:11:18.797Z,8.95
2019-06-07T20:13:46.232Z,9.95
2019-06-07T20:16:13.794Z,10.48
2019-06-07T20:18:41.229Z,9.65
2019-06-07T20:21:09.226Z,9.68
2019-06-07T20:23:36.836Z,9.38
2019-06-07T20:26:04.826Z,9.13
2019-06-07T20:28:32.635Z,10.23
2019-06-07T20:31:01.827Z,9.85
2019-06-07T20:33:29.439Z,9.43
2019-06-07T20:35:57.117Z,9.25
2019-06-07T20:38:24.575Z,8.75
2019-06-07T20:40:52.139Z,9.98
2019-06-07T20:43:19.671Z,9.00
2019-06-07T20:45:47.202Z,12.05
2019-06-07T20:48:14.638Z,13.60
2019-06-07T20:50:42.314Z,17.25
2019-06-07T20:53:09.835Z,9.50
2019-06-07T20:55:37.314Z,6.70
2019-06-07T20:58:05.514Z,6.42
2019-06-07T21:00:33.601Z,3.50
2019-06-07T21:03:05.173Z,3.77
2019-06-07T21:05:32.856Z,4.00
2019-06-07T21:08:01.646Z,3.30
2019-06-07T21:10:29.593Z,2.60
2019-06-07T21:12:57.207Z,2.90
2019-06-07T21:15:24.938Z,4.28
2019-06-07T21:17:52.399Z,5.22
2019-06-07T21:20:20.284Z,6.80
2019-06-07T21:22:48.020Z,7.72
2019-06-07T21:25:15.487Z,8.85
2019-06-07T21:27:43.341Z,11.30
2019-06-07T21:30:11.778Z,11.68
2019-06-07T21:32:39.359Z,12.47
2019-06-07T21:35:07.988Z,13.28
2019-06-07T21:37:36.727Z,12.80
2019-06-07T21:40:06.039Z,11.88
2019-06-07T21:42:33.568Z,11.53
2019-06-07T21:45:06.283Z,11.68
2019-06-07T21:47:34.698Z,9.53
2019-06-07T21:50:02.657Z,8.78
2019-06-07T21:52:31.400Z,8.20
2019-06-07T21:54:58.841Z,7.97
2019-06-07T21:57:26.300Z,7.05
2019-06-07T21:59:53.816Z,7.28
2019-06-07T22:02:21.310Z,6.83
2019-06-07T22:04:49.099Z,5.35
2019-06-07T22:07:17.727Z,8.23
2019-06-07T22:09:48.486Z,8.03
2019-06-07T22:12:17.798Z,10.08
2019-06-07T22:14:45.343Z,9.10
2019-06-07T22:17:12.943Z,12.50
2019-06-07T22:19:40.391Z,9.58
2019-06-07T22:22:09.245Z,5.03
2019-06-07T22:24:36.921Z,5.90
2019-06-07T22:27:04.874Z,5.83
2019-06-07T22:29:32.451Z,5.03
2019-06-07T22:31:59.925Z,6.15
2019-06-07T22:34:27.407Z,5.58
2019-06-07T22:36:54.900Z,5.92
2019-06-07T22:39:22.366Z,7.10
2019-06-07T22:41:49.981Z,6.33
2019-06-07T22:44:17.431Z,2.95
2019-06-07T22:46:45.092Z,3.85
2019-06-07T22:49:13.335Z,7.28
2019-06-07T22:51:40.829Z,4.12
2019-06-07T22:54:09.384Z,6.17
2019-06-07T22:56:42.352Z,5.42
2019-06-07T22:59:13.707Z,5.80
2019-06-07T23:01:39.143Z,4.60
2019-06-07T23:04:06.633Z,4.92
2019-06-07T23:06:34.086Z,4.45
2019-06-07T23:09:01.606Z,5.92
2019-06-07T23:11:30.976Z,4.30
2019-06-07T23:13:58.459Z,4.22
2019-06-07T23:16:25.986Z,4.35
2019-06-07T23:18:53.523Z,7.28
2019-06-07T23:21:21.005Z,3.00
2019-06-07T23:23:48.489Z,3.52
2019-06-07T23:26:16.253Z,6.92
2019-06-07T23:28:43.857Z,6.70
2019-06-07T23:31:12.404Z,7.40
2019-06-07T23:33:40.264Z,6.20
2019-06-07T23:36:07.755Z,6.92
2019-06-07T23:38:35.237Z,7.80
2019-06-07T23:41:02.611Z,5.05
2019-06-07T23:43:30.545Z,8.00
2019-06-07T23:45:57.995Z,5.72
2019-06-07T23:48:25.429Z,7.17
2019-06-07T23:50:52.987Z,5.28
2019-06-07T23:53:22.197Z,4.50
2019-06-07T23:55:49.787Z,3.90
2019-06-07T23:58:18.584Z,4.30
